Time;durP1;ratioP1;P1;durP2;ratioP2;P2;SDS_P1;SDS_P2;PMS_P1;PMS_P2;Temp;Humidity;BMP_temperature;BMP_pressure;BME280_temperature;BME280_humidity;BME280_pressure;Samples;Min_cycle;Max_cycle;Signal;HPM_P1;HPM_P2
2021/08/30 00:02:06;;;;;;;;;;;;;;;11.35;43.08;99587.47;5059053;28;19924;-72
2021/08/30 00:04:32;;;;;;;;;;;;;;;11.36;42.77;99597.22;5078157;28;19931;-72
2021/08/30 00:06:59;;;;;;;;;;;;;;;11.36;43.12;99601.72;5062583;28;19923;-73
2021/08/30 00:09:25;;;;;;;;;;;;;;;11.40;42.77;99604.03;5097468;28;19935;-74
2021/08/30 00:11:51;;;;;;;;;;;;;;;11.43;42.47;99598.44;5029446;28;19924;-72
2021/08/30 00:14:17;;;;;;;;;;;;;;;11.47;42.85;99598.19;5063643;28;20413;-73
2021/08/30 00:16:42;;;;;;;;;;;;;;;11.50;43.07;99603.28;5060350;28;20443;-73
2021/08/30 00:19:08;;;;;;;;;;;;;;;11.52;42.62;99602.22;5042489;28;20414;-72
2021/08/30 00:21:34;;;;;;;;;;;;;;;11.40;43.50;99604.03;5042601;28;19924;-72
2021/08/30 00:23:59;;;;;;;;;;;;;;;11.39;43.06;99607.66;5059006;28;19930;-73
2021/08/30 00:26:25;;;;;;;;;;;;;;;11.38;43.82;99611.31;5059201;28;19931;-73
2021/08/30 00:28:51;;;;;;;;;;;;;;;11.26;44.16;99601.59;5058942;28;20391;-74
2021/08/30 00:31:17;;;;;;;;;;;;;;;11.27;44.11;99602.44;5075375;28;20378;-74
2021/08/30 00:33:42;;;;;;;;;;;;;;;11.31;44.04;99599.41;5058824;28;20302;-73
2021/08/30 00:36:08;;;;;;;;;;;;;;;11.26;44.07;99601.59;5042105;28;20021;-74
2021/08/30 00:38:34;;;;;;;;;;;;;;;11.23;44.13;99598.31;5075148;28;19928;-75
2021/08/30 00:41:00;;;;;;;;;;;;;;;11.26;43.64;99601.59;5042177;28;19923;-75
2021/08/30 00:43:26;;;;;;;;;;;;;;;11.20;44.34;99602.06;5042189;28;20031;-73
2021/08/30 00:45:51;;;;;;;;;;;;;;;11.21;43.76;99601.13;5075390;28;20012;-75
2021/08/30 00:48:18;;;;;;;;;;;;;;;11.24;43.49;99594.66;5041982;28;19924;-73
2021/08/30 00:50:43;;;;;;;;;;;;;;;11.28;43.50;99591.59;5041864;28;20342;-74
2021/08/30 00:53:09;;;;;;;;;;;;;;;11.32;43.50;99594.88;5058256;28;19930;-73
2021/08/30 00:55:35;;;;;;;;;;;;;;;11.32;43.30;99598.44;5041822;28;19931;-74
2021/08/30 00:58:02;;;;;;;;;;;;;;;11.34;43.19;99599.16;5093270;28;20341;-74
2021/08/30 01:00:27;;;;;;;;;;;;;;;11.34;43.41;99593.81;5041653;28;19924;-74
2021/08/30 01:02:53;;;;;;;;;;;;;;;11.36;43.37;99586.53;5041699;28;19930;-73
2021/08/30 01:05:19;;;;;;;;;;;;;;;11.31;44.30;99598.56;5075011;28;19928;-73
2021/08/30 01:07:48;;;;;;;;;;;;;;;11.25;44.11;99597.22;5025271;28;20030;-72
2021/08/30 01:10:19;;;;;;;;;;;;;;;11.22;44.71;99599.28;5077646;28;20019;-73
2021/08/30 01:12:46;;;;;;;;;;;;;;;11.14;44.52;99603.41;5062520;28;19928;-71
2021/08/30 01:15:13;;;;;;;;;;;;;;;10.99;45.39;99614.47;5062217;28;19959;-72
2021/08/30 01:17:39;;;;;;;;;;;;;;;10.87;45.50;99606.41;5028862;28;19973;-74
2021/08/30 01:20:05;;;;;;;;;;;;;;;10.78;45.60;99604.44;5062758;28;20022;-73
2021/08/30 01:22:31;;;;;;;;;;;;;;;10.71;45.97;99611.22;5062545;28;19924;-73
2021/08/30 01:24:57;;;;;;;;;;;;;;;10.72;45.75;99612.94;5045760;28;20012;-73
2021/08/30 01:27:24;;;;;;;;;;;;;;;10.66;46.08;99618.75;5061974;28;20394;-73
2021/08/30 01:29:56;;;;;;;;;;;;;;;10.63;45.86;99609.13;5045766;28;19924;-73
2021/08/30 01:32:22;;;;;;;;;;;;;;;10.63;46.02;99613.63;5062149;28;19924;-73
2021/08/30 01:34:48;;;;;;;;;;;;;;;10.63;46.28;99630.50;5096619;28;19932;-74
2021/08/30 01:37:13;;;;;;;;;;;;;;;10.70;45.90;99623.72;5028511;28;19932;-75
2021/08/30 01:39:39;;;;;;;;;;;;;;;10.74;46.04;99627.03;5028472;28;19963;-73
2021/08/30 01:42:05;;;;;;;;;;;;;;;10.73;46.28;99625.34;5078425;28;19935;-72
2021/08/30 01:44:31;;;;;;;;;;;;;;;10.79;46.16;99635.53;5078683;28;19924;-73
2021/08/30 01:46:57;;;;;;;;;;;;;;;10.84;46.01;99633.38;5083688;28;19946;-73
2021/08/30 01:49:24;;;;;;;;;;;;;;;10.86;46.09;99631.44;5067005;28;19924;-73
2021/08/30 01:51:49;;;;;;;;;;;;;;;11.01;45.37;99639.25;5078005;28;20348;-72
2021/08/30 01:54:15;;;;;;;;;;;;;;;10.99;45.74;99638.53;5045027;28;19928;-74
2021/08/30 01:56:46;;;;;;;;;;;;;;;10.96;45.80;99641.44;5061595;28;19928;-74
2021/08/30 02:02:00;;;;;;;;;;;;;;;11.19;44.94;99646.69;5064272;28;19958;-74
2021/08/30 02:04:26;;;;;;;;;;;;;;;11.24;45.24;99651.69;5078594;28;19927;-73
2021/08/30 02:06:51;;;;;;;;;;;;;;;11.36;44.84;99650.75;5045104;28;19923;-74
2021/08/30 02:09:17;;;;;;;;;;;;;;;11.49;44.67;99649.78;5061188;28;19924;-73
2021/08/30 02:11:43;;;;;;;;;;;;;;;11.60;44.36;99657.81;5061385;28;19931;-74
2021/08/30 02:14:08;;;;;;;;;;;;;;;11.72;44.38;99648.81;5044636;28;20345;-74
2021/08/30 02:16:34;;;;;;;;;;;;;;;11.83;44.18;99647.94;5061056;28;19924;-74
2021/08/30 02:19:12;;;;;;;;;;;;;;;11.96;44.09;99647.81;5049401;28;19924;-73
2021/08/30 02:21:43;;;;;;;;;;;;;;;12.08;43.89;99646.84;5081232;28;19973;-72
2021/08/30 02:24:27;;;;;;;;;;;;;;;12.16;44.02;99652.44;5060774;28;19924;-74
2021/08/30 02:26:56;;;;;;;;;;;;;;;12.26;43.83;99648.03;5077303;28;19971;-74
2021/08/30 02:29:22;;;;;;;;;;;;;;;12.35;43.48;99649.94;5077518;28;19931;-72
2021/08/30 02:31:50;;;;;;;;;;;;;;;12.42;43.55;99649.44;5061183;28;19927;-74
2021/08/30 02:34:20;;;;;;;;;;;;;;;12.49;43.12;99643.44;5060741;28;19928;-75
2021/08/30 02:36:45;;;;;;;;;;;;;;;12.54;43.34;99659.16;5043986;28;19928;-74
2021/08/30 02:39:11;;;;;;;;;;;;;;;12.55;43.51;99656.31;5060580;28;19927;-76
2021/08/30 02:41:37;;;;;;;;;;;;;;;12.60;43.78;99655.97;5043576;28;19924;-74
2021/08/30 02:44:03;;;;;;;;;;;;;;;12.65;43.76;99661.78;5046676;28;19924;-74
2021/08/30 02:46:29;;;;;;;;;;;;;;;12.67;43.61;99665.19;5083831;28;20276;-75
2021/08/30 02:48:55;;;;;;;;;;;;;;;12.71;43.80;99666.63;5097288;28;20439;-75
2021/08/30 02:51:21;;;;;;;;;;;;;;;12.75;43.92;99662.72;5063682;28;20018;-73
2021/08/30 02:53:47;;;;;;;;;;;;;;;12.80;43.82;99676.59;5057191;28;19924;-74
2021/08/30 02:56:13;;;;;;;;;;;;;;;12.82;44.00;99669.25;5051164;28;19931;-74
2021/08/30 02:58:39;;;;;;;;;;;;;;;12.86;44.18;99669.84;5076794;28;19924;-76
2021/08/30 03:01:07;;;;;;;;;;;;;;;12.87;44.19;99672.41;5077896;28;19924;-74
2021/08/30 03:03:34;;;;;;;;;;;;;;;12.92;44.22;99680.06;5060307;28;19924;-76
2021/08/30 03:05:59;;;;;;;;;;;;;;;12.97;43.87;99680.53;5060251;28;19931;-75
2021/08/30 03:08:25;;;;;;;;;;;;;;;12.97;43.60;99677.00;5043337;28;20280;-73
2021/08/30 03:10:51;;;;;;;;;;;;;;;12.98;43.87;99671.50;5060403;28;19924;-74
2021/08/30 03:13:17;;;;;;;;;;;;;;;13.01;43.57;99678.44;5060284;28;19924;-77
2021/08/30 03:15:43;;;;;;;;;;;;;;;13.06;43.98;99676.22;5026820;28;19962;-73
2021/08/30 03:18:10;;;;;;;;;;;;;;;13.09;43.56;99682.19;5043261;28;19994;-75
2021/08/30 03:20:36;;;;;;;;;;;;;;;13.11;43.66;99679.38;5060072;28;19928;-75
2021/08/30 03:23:02;;;;;;;;;;;;;;;13.17;43.84;99678.00;5059800;28;20344;-75
2021/08/30 03:25:29;;;;;;;;;;;;;;;13.20;43.78;99678.59;5044664;28;19924;-75
2021/08/30 03:27:55;;;;;;;;;;;;;;;13.27;43.48;99673.56;5068810;28;20375;-74
2021/08/30 03:30:22;;;;;;;;;;;;;;;13.35;43.54;99677.31;5043070;28;19931;-74
2021/08/30 03:32:48;;;;;;;;;;;;;;;13.44;43.38;99681.03;5042132;28;19976;-76
2021/08/30 03:35:13;;;;;;;;;;;;;;;13.53;43.27;99684.72;5076259;28;19924;-74
2021/08/30 03:37:39;;;;;;;;;;;;;;;13.59;43.06;99689.59;5059451;28;19983;-74
2021/08/30 03:40:05;;;;;;;;;;;;;;;13.70;43.29;99680.59;5076689;28;19989;-75
2021/08/30 03:42:31;;;;;;;;;;;;;;;13.77;42.77;99685.28;5042655;28;20026;-74
2021/08/30 03:44:57;;;;;;;;;;;;;;;13.87;43.03;99681.78;5077144;28;19959;-77
2021/08/30 03:47:23;;;;;;;;;;;;;;;13.98;42.81;99692.44;5043544;28;19969;-75
2021/08/30 03:49:48;;;;;;;;;;;;;;;14.08;42.79;99691.47;5059535;28;19924;-77
2021/08/30 03:52:14;;;;;;;;;;;;;;;14.16;42.65;99693.50;5042716;28;19924;-75
2021/08/30 03:54:40;;;;;;;;;;;;;;;14.24;42.50;99690.97;5076052;28;19924;-74
2021/08/30 03:57:06;;;;;;;;;;;;;;;14.29;42.64;99694.09;5075614;28;19950;-75
2021/08/30 03:59:33;;;;;;;;;;;;;;;14.41;42.61;99699.38;5059091;28;19950;-77
2021/08/30 04:02:00;;;;;;;;;;;;;;;14.52;42.21;99693.91;5075934;28;19924;-78
2021/08/30 04:04:26;;;;;;;;;;;;;;;14.59;42.02;99692.31;5059080;28;19928;-79
2021/08/30 04:06:52;;;;;;;;;;;;;;;14.67;41.92;99692.50;5042167;28;19924;-78
2021/08/30 04:09:20;;;;;;;;;;;;;;;14.76;41.77;99686.25;5059153;28;20302;-78
2021/08/30 04:11:47;;;;;;;;;;;;;;;14.87;41.59;99692.50;5076090;28;19986;-80
2021/08/30 04:14:12;;;;;;;;;;;;;;;15.02;41.52;99691.06;5026475;28;19945;-78
2021/08/30 04:16:39;;;;;;;;;;;;;;;15.13;41.12;99688.22;5056972;28;20517;-78
2021/08/30 04:19:04;;;;;;;;;;;;;;;15.21;40.91;99691.06;5040356;28;19948;-79
2021/08/30 04:21:30;;;;;;;;;;;;;;;15.34;40.69;99682.66;5056284;28;20398;-77
2021/08/30 04:23:56;;;;;;;;;;;;;;;15.43;40.78;99678.25;5056419;28;19935;-79
2021/08/30 04:26:21;;;;;;;;;;;;;;;15.61;40.53;99686.41;5056378;28;19931;-77
2021/08/30 04:28:48;;;;;;;;;;;;;;;15.79;40.04;99690.91;5056808;28;20026;-79
2021/08/30 04:31:14;;;;;;;;;;;;;;;15.93;40.21;99691.44;5040832;28;19991;-77
2021/08/30 04:33:40;;;;;;;;;;;;;;;16.11;39.90;99689.66;5042284;28;19950;-77
2021/08/30 04:36:06;;;;;;;;;;;;;;;16.31;40.02;99687.69;5059133;28;19932;-78
2021/08/30 04:38:32;;;;;;;;;;;;;;;16.49;39.54;99685.03;5074868;28;20019;-78
2021/08/30 04:40:58;;;;;;;;;;;;;;;16.66;39.51;99686.91;5075532;28;20010;-79
2021/08/30 04:43:24;;;;;;;;;;;;;;;16.71;39.26;99681.91;5077495;28;20023;-78
2021/08/30 04:45:49;;;;;;;;;;;;;;;16.91;39.23;99681.78;5048443;28;20370;-78
2021/08/30 04:48:15;;;;;;;;;;;;;;;17.03;38.87;99690.47;5081723;28;19928;-78
2021/08/30 04:50:41;;;;;;;;;;;;;;;17.17;39.08;99685.38;5065205;28;20014;-78
2021/08/30 04:53:07;;;;;;;;;;;;;;;17.33;38.83;99681.09;5082751;28;20329;-79
2021/08/30 04:55:32;;;;;;;;;;;;;;;17.36;38.66;99684.31;5064991;28;19924;-78
2021/08/30 04:57:59;;;;;;;;;;;;;;;17.52;38.67;99686.28;5065126;28;20022;-77
2021/08/30 05:00:25;;;;;;;;;;;;;;;17.64;38.30;99690.44;5082419;28;19947;-78
2021/08/30 05:02:51;;;;;;;;;;;;;;;17.78;38.12;99696.28;5100488;28;20025;-78
2021/08/30 05:05:17;;;;;;;;;;;;;;;17.73;37.76;99697.59;5082442;28;19931;-78
2021/08/30 05:07:43;;;;;;;;;;;;;;;17.66;37.66;99701.94;5049019;28;20081;-77
2021/08/30 05:10:09;;;;;;;;;;;;;;;17.78;37.91;99701.69;5100156;28;19924;-78
2021/08/30 05:12:34;;;;;;;;;;;;;;;17.93;37.67;99694.66;5065427;28;19978;-78
2021/08/30 05:15:02;;;;;;;;;;;;;;;18.05;37.73;99701.47;5065723;28;20322;-78
2021/08/30 05:17:28;;;;;;;;;;;;;;;18.17;37.86;99697.50;5049828;28;20018;-78
2021/08/30 05:19:54;;;;;;;;;;;;;;;18.37;37.69;99692.66;5065371;28;20369;-78
2021/08/30 05:22:19;;;;;;;;;;;;;;;18.57;36.99;99695.91;5065333;28;20336;-78
2021/08/30 05:24:46;;;;;;;;;;;;;;;18.69;36.99;99688.31;5081872;28;20123;-79
2021/08/30 05:27:11;;;;;;;;;;;;;;;18.83;36.78;99686.88;5064951;28;19946;-78
2021/08/30 05:29:37;;;;;;;;;;;;;;;18.91;36.86;99695.84;5082023;28;20469;-77
2021/08/30 05:32:03;;;;;;;;;;;;;;;18.72;36.77;99690.75;5064803;28;19924;-77
2021/08/30 05:34:30;;;;;;;;;;;;;;;18.63;36.99;99700.69;5081716;28;19961;-77
2021/08/30 05:36:55;;;;;;;;;;;;;;;18.88;36.67;99698.03;5031557;28;19928;-77
2021/08/30 05:39:21;;;;;;;;;;;;;;;19.12;36.33;99698.06;5047792;28;19927;-77
2021/08/30 05:41:47;;;;;;;;;;;;;;;19.24;35.98;99697.72;5048043;28;19924;-79
2021/08/30 05:44:13;;;;;;;;;;;;;;;19.14;35.83;99696.06;5031302;28;19924;-77
2021/08/30 05:46:38;;;;;;;;;;;;;;;19.33;36.14;99699.41;5099440;28;19924;-76
2021/08/30 05:49:04;;;;;;;;;;;;;;;19.52;36.28;99693.66;5081851;28;19924;-77
2021/08/30 05:51:30;;;;;;;;;;;;;;;19.79;35.52;99692.44;5031569;28;19923;-77
2021/08/30 05:53:55;;;;;;;;;;;;;;;19.93;35.24;99696.28;5099474;28;19928;-76
2021/08/30 05:56:21;;;;;;;;;;;;;;;20.16;35.21;99699.09;5060887;28;20054;-78
2021/08/30 05:58:47;;;;;;;;;;;;;;;20.10;35.05;99697.91;5061456;28;19987;-77
2021/08/30 06:01:12;;;;;;;;;;;;;;;20.06;35.41;99691.16;5060882;28;19931;-77
2021/08/30 06:03:38;;;;;;;;;;;;;;;20.23;34.73;99691.09;5061411;28;19928;-78
2021/08/30 06:06:04;;;;;;;;;;;;;;;20.42;34.58;99690.63;5095836;28;19967;-77
2021/08/30 06:08:30;;;;;;;;;;;;;;;20.42;34.80;99679.78;5061062;28;20023;-78
2021/08/30 06:10:57;;;;;;;;;;;;;;;20.61;34.96;99671.25;5061082;28;19973;-79
2021/08/30 06:13:26;;;;;;;;;;;;;;;20.80;34.66;99671.78;5095852;28;19947;-78
2021/08/30 06:15:52;;;;;;;;;;;;;;;21.05;34.43;99670.56;5044508;28;19930;-78
2021/08/30 06:18:18;;;;;;;;;;;;;;;21.23;33.99;99672.97;5061115;28;20018;-78
2021/08/30 06:20:43;;;;;;;;;;;;;;;21.38;33.83;99673.03;5060765;28;19939;-78
2021/08/30 06:23:09;;;;;;;;;;;;;;;21.42;33.65;99666.19;5043855;28;19924;-78
2021/08/30 06:25:35;;;;;;;;;;;;;;;21.28;32.39;99664.25;5077452;28;20374;-78
2021/08/30 06:28:01;;;;;;;;;;;;;;;21.27;32.79;99668.00;5060653;28;20023;-78
2021/08/30 06:30:26;;;;;;;;;;;;;;;21.17;32.56;99678.28;5060618;28;19930;-79
2021/08/30 06:32:52;;;;;;;;;;;;;;;21.06;32.77;99671.41;5077164;28;19924;-78
2021/08/30 06:35:18;;;;;;;;;;;;;;;21.08;32.44;99664.75;5060368;28;19924;-78
2021/08/30 06:37:45;;;;;;;;;;;;;;;21.21;32.73;99664.16;5060813;28;19939;-78
2021/08/30 06:40:11;;;;;;;;;;;;;;;21.51;31.92;99661.50;5060222;28;19924;-78
2021/08/30 06:42:37;;;;;;;;;;;;;;;21.62;32.16;99660.22;5043672;28;19923;-78
2021/08/30 06:45:03;;;;;;;;;;;;;;;21.44;31.70;99653.28;5060626;28;20387;-78
2021/08/30 06:47:29;;;;;;;;;;;;;;;21.43;31.63;99657.00;5060649;28;19924;-78
2021/08/30 06:49:55;;;;;;;;;;;;;;;21.45;30.99;99662.28;5044050;28;19924;-78
2021/08/30 06:52:21;;;;;;;;;;;;;;;21.37;30.79;99665.91;5063490;28;19999;-77
2021/08/30 06:54:47;;;;;;;;;;;;;;;21.46;30.77;99650.34;5064361;28;20367;-78
2021/08/30 06:57:13;;;;;;;;;;;;;;;21.74;30.41;99648.69;5063641;28;19924;-78
2021/08/30 06:59:38;;;;;;;;;;;;;;;21.60;29.69;99662.28;5065875;28;20271;-77
2021/08/30 07:02:04;;;;;;;;;;;;;;;21.68;29.82;99654.03;5084441;28;19989;-76
2021/08/30 07:04:30;;;;;;;;;;;;;;;21.83;29.46;99658.44;5084676;28;19991;-78
2021/08/30 07:06:56;;;;;;;;;;;;;;;21.67;29.48;99650.47;5078155;28;20343;-78
2021/08/30 07:09:23;;;;;;;;;;;;;;;21.37;29.62;99655.03;5077969;28;20312;-79
2021/08/30 07:11:50;;;;;;;;;;;;;;;21.25;29.21;99665.47;5061200;28;19931;-78
2021/08/30 07:14:15;;;;;;;;;;;;;;;21.43;29.21;99662.44;5027583;28;19947;-77
2021/08/30 07:16:41;;;;;;;;;;;;;;;21.61;28.84;99658.53;5044023;28;20389;-77
2021/08/30 07:19:07;;;;;;;;;;;;;;;21.73;28.10;99654.31;5043629;28;19931;-77
2021/08/30 07:21:33;;;;;;;;;;;;;;;21.21;28.88;99666.88;5060257;28;19928;-77
2021/08/30 07:23:59;;;;;;;;;;;;;;;21.01;29.84;99666.53;5026679;28;19947;-78
2021/08/30 07:26:25;;;;;;;;;;;;;;;20.99;30.07;99660.44;5060145;28;19931;-76
2021/08/30 07:28:51;;;;;;;;;;;;;;;21.46;29.85;99651.19;5043765;28;20386;-77
2021/08/30 07:31:16;;;;;;;;;;;;;;;21.55;28.63;99651.94;5075962;28;20485;-78
2021/08/30 07:33:42;;;;;;;;;;;;;;;21.49;28.71;99653.53;5026580;28;19924;-77
2021/08/30 07:36:08;;;;;;;;;;;;;;;21.37;29.20;99651.47;5059645;28;19924;-78
2021/08/30 07:38:34;;;;;;;;;;;;;;;21.43;28.83;99657.00;5075862;28;19928;-79
2021/08/30 07:41:00;;;;;;;;;;;;;;;21.41;29.04;99656.34;5059178;28;19927;-77
2021/08/30 07:43:25;;;;;;;;;;;;;;;21.37;28.64;99665.91;5042358;28;20028;-77
2021/08/30 07:45:51;;;;;;;;;;;;;;;21.60;28.27;99652.25;5075895;28;20386;-78
2021/08/30 07:48:17;;;;;;;;;;;;;;;21.78;27.20;99654.63;5076546;28;19924;-78
2021/08/30 07:50:43;;;;;;;;;;;;;;;21.67;27.54;99653.19;5076028;28;19924;-78
2021/08/30 07:53:08;;;;;;;;;;;;;;;21.71;28.02;99645.50;5059400;28;20027;-78
2021/08/30 07:55:36;;;;;;;;;;;;;;;22.21;27.92;99643.91;5059375;28;19935;-76
2021/08/30 07:58:05;;;;;;;;;;;;;;;22.39;26.92;99646.22;5059036;28;19967;-77
2021/08/30 08:00:31;;;;;;;;;;;;;;;22.31;27.12;99658.06;5075709;28;20387;-78
2021/08/30 08:02:56;;;;;;;;;;;;;;;22.15;26.76;99644.66;5025841;28;20061;-77
2021/08/30 08:05:23;;;;;;;;;;;;;;;22.20;27.06;99643.06;5058480;28;20414;-78
2021/08/30 08:07:48;;;;;;;;;;;;;;;22.66;26.06;99631.84;5075619;28;20283;-78
2021/08/30 08:10:14;;;;;;;;;;;;;;;22.73;25.97;99631.91;5093573;28;19931;-78
2021/08/30 08:12:40;;;;;;;;;;;;;;;22.90;25.77;99632.47;5042086;28;20026;-78
2021/08/30 08:15:06;;;;;;;;;;;;;;;22.91;26.11;99635.06;5057603;28;20023;-77
2021/08/30 08:17:34;;;;;;;;;;;;;;;22.67;26.09;99644.41;5041332;28;20065;-79
2021/08/30 08:20:00;;;;;;;;;;;;;;;22.73;25.86;99637.34;5075566;28;19924;-77
2021/08/30 08:22:28;;;;;;;;;;;;;;;22.99;25.55;99637.66;5041966;28;19928;-78
2021/08/30 08:24:57;;;;;;;;;;;;;;;22.86;25.74;99632.03;5058552;28;19960;-77
2021/08/30 08:27:23;;;;;;;;;;;;;;;22.96;25.92;99635.31;5041935;28;19924;-78
2021/08/30 08:29:48;;;;;;;;;;;;;;;23.09;25.71;99625.53;5042281;28;19946;-77
2021/08/30 08:32:14;;;;;;;;;;;;;;;23.27;25.74;99631.38;5075316;28;19931;-78
2021/08/30 08:34:40;;;;;;;;;;;;;;;23.45;25.60;99637.16;5041441;28;19946;-79
2021/08/30 08:37:06;;;;;;;;;;;;;;;23.12;25.51;99638.78;5074688;28;19928;-78
2021/08/30 08:39:32;;;;;;;;;;;;;;;23.26;25.76;99626.97;5025288;28;19931;-78
2021/08/30 08:41:58;;;;;;;;;;;;;;;23.53;25.21;99628.00;5057975;28;19924;-78
2021/08/30 08:44:24;;;;;;;;;;;;;;;23.70;25.33;99631.28;5025870;28;20004;-77
2021/08/30 08:46:49;;;;;;;;;;;;;;;24.22;25.07;99617.06;5041789;28;20008;-78
2021/08/30 08:49:15;;;;;;;;;;;;;;;24.56;24.86;99625.34;5058498;28;20029;-77
2021/08/30 08:51:41;;;;;;;;;;;;;;;24.11;24.58;99635.88;5058523;28;19924;-78
2021/08/30 08:54:08;;;;;;;;;;;;;;;24.06;24.54;99633.78;5041872;28;19928;-79
2021/08/30 08:56:34;;;;;;;;;;;;;;;23.78;24.90;99631.13;5058291;28;19950;-78
2021/08/30 08:59:00;;;;;;;;;;;;;;;23.50;25.15;99634.69;5058660;28;19924;-78
2021/08/30 09:01:26;;;;;;;;;;;;;;;23.32;25.25;99637.09;5042471;28;19938;-78
2021/08/30 09:03:55;;;;;;;;;;;;;;;23.72;25.42;99630.03;5042026;28;20386;-78
2021/08/30 09:06:27;;;;;;;;;;;;;;;24.17;25.20;99624.16;5042194;28;19924;-79
2021/08/30 09:08:56;;;;;;;;;;;;;;;24.58;25.04;99617.81;5075086;28;20379;-78
2021/08/30 09:11:23;;;;;;;;;;;;;;;24.90;24.26;99614.28;5024918;28;19966;-77
2021/08/30 09:13:53;;;;;;;;;;;;;;;24.81;23.75;99621.00;5058361;28;19924;-78
2021/08/30 09:16:19;;;;;;;;;;;;;;;24.65;24.33;99621.41;5058046;28;20391;-78
2021/08/30 09:18:45;;;;;;;;;;;;;;;25.12;24.48;99614.09;5057872;28;20358;-78
2021/08/30 09:21:11;;;;;;;;;;;;;;;25.38;23.54;99616.81;5058114;28;19931;-78
2021/08/30 09:23:41;;;;;;;;;;;;;;;25.65;23.27;99616.78;5041459;28;19923;-78
2021/08/30 09:26:13;;;;;;;;;;;;;;;25.41;23.04;99616.41;5041304;28;19924;-78
2021/08/30 09:28:39;;;;;;;;;;;;;;;25.32;22.89;99620.44;5058001;28;20286;-79
2021/08/30 09:31:05;;;;;;;;;;;;;;;25.23;23.11;99608.00;5027108;28;20018;-79
2021/08/30 09:33:34;;;;;;;;;;;;;;;25.35;23.05;99611.78;5078395;28;20019;-78
2021/08/30 09:36:00;;;;;;;;;;;;;;;25.57;22.28;99611.53;5061127;28;19963;-78
2021/08/30 09:38:27;;;;;;;;;;;;;;;25.28;22.41;99613.69;5058028;28;19980;-79
2021/08/30 09:41:03;;;;;;;;;;;;;;;24.60;22.84;99618.47;5041409;28;19930;-78
2021/08/30 09:43:29;;;;;;;;;;;;;;;24.46;23.67;99607.47;5058164;28;20069;-80
2021/08/30 09:45:54;;;;;;;;;;;;;;;25.25;23.39;99594.13;5058331;28;20042;-78
2021/08/30 09:48:24;;;;;;;;;;;;;;;25.61;22.83;99601.84;5041586;28;19994;-78
2021/08/30 09:50:50;;;;;;;;;;;;;;;25.65;22.44;99594.88;5074665;28;19940;-77
2021/08/30 09:53:16;;;;;;;;;;;;;;;26.11;22.69;99611.19;5041573;28;20020;-78
2021/08/30 09:55:42;;;;;;;;;;;;;;;26.01;22.27;99610.81;5074848;28;19967;-79
2021/08/30 09:58:09;;;;;;;;;;;;;;;26.00;22.26;99606.41;5041437;28;19951;-79
2021/08/30 10:00:35;;;;;;;;;;;;;;;26.30;22.14;99595.72;5024608;28;19924;-77
2021/08/30 10:03:02;;;;;;;;;;;;;;;26.52;21.77;99595.44;5057812;28;19924;-77
2021/08/30 10:05:28;;;;;;;;;;;;;;;26.91;21.14;99593.47;5041751;28;19933;-76
2021/08/30 10:07:54;;;;;;;;;;;;;;;27.26;20.58;99591.91;5075743;28;19932;-76
2021/08/30 10:10:20;;;;;;;;;;;;;;;27.54;20.77;99593.34;5025676;28;19925;-78
2021/08/30 10:12:46;;;;;;;;;;;;;;;27.53;19.91;99602.63;5060489;28;20078;-78
2021/08/30 10:15:13;;;;;;;;;;;;;;;27.67;20.26;99584.94;5059490;28;19924;-79
2021/08/30 10:17:43;;;;;;;;;;;;;;;27.63;20.23;99589.22;5074621;28;19925;-78
2021/08/30 10:20:12;;;;;;;;;;;;;;;27.97;20.14;99582.31;5074784;28;19924;-76
2021/08/30 10:22:38;;;;;;;;;;;;;;;27.87;19.98;99583.91;5041925;28;19924;-78
2021/08/30 10:25:13;;;;;;;;;;;;;;;27.88;19.79;99588.34;5041241;28;20007;-79
2021/08/30 10:27:39;;;;;;;;;;;;;;;28.12;19.36;99584.66;5041625;28;19924;-78
2021/08/30 10:30:09;;;;;;;;;;;;;;;28.27;19.12;99587.84;5041393;28;19925;-78
2021/08/30 10:32:36;;;;;;;;;;;;;;;28.50;18.75;99589.03;5057536;28;19935;-78
2021/08/30 10:35:10;;;;;;;;;;;;;;;28.26;19.03;99590.81;5024717;28;19925;-78
2021/08/30 10:37:45;;;;;;;;;;;;;;;26.68;20.06;99589.41;5040745;28;19932;-79
2021/08/30 10:40:18;;;;;;;;;;;;;;;27.03;20.35;99580.69;5057629;28;19967;-77
2021/08/30 10:42:44;;;;;;;;;;;;;;;27.54;19.74;99583.19;5040772;28;19970;-77
2021/08/30 10:45:10;;;;;;;;;;;;;;;28.12;18.78;99573.66;5073078;28;20303;-77
2021/08/30 10:47:36;;;;;;;;;;;;;;;28.52;18.84;99573.16;5040070;28;19990;-79
2021/08/30 10:50:03;;;;;;;;;;;;;;;28.96;18.37;99563.56;5024225;28;19925;-80
2021/08/30 10:52:38;;;;;;;;;;;;;;;29.38;18.05;99577.25;5040872;28;19939;-78
2021/08/30 10:55:14;;;;;;;;;;;;;;;29.25;17.62;99577.50;5057478;28;19924;-77
2021/08/30 10:57:40;;;;;;;;;;;;;;;29.23;17.92;99560.38;5057580;28;19978;-77
2021/08/30 11:00:06;;;;;;;;;;;;;;;30.03;18.01;99567.13;5057520;28;20214;-77
2021/08/30 11:02:45;;;;;;;;;;;;;;;30.36;17.46;99572.78;5073760;28;19924;-77
2021/08/30 11:05:11;;;;;;;;;;;;;;;29.97;17.73;99558.72;5057349;28;19931;-78
2021/08/30 11:07:37;;;;;;;;;;;;;;;30.26;17.60;99555.19;5040486;28;19924;-77
2021/08/30 11:10:04;;;;;;;;;;;;;;;30.47;17.19;99562.78;5056479;28;19970;-78
2021/08/30 11:12:29;;;;;;;;;;;;;;;30.48;16.74;99581.81;5057088;28;19925;-78
2021/08/30 11:14:55;;;;;;;;;;;;;;;29.47;17.25;99577.72;5073694;28;19978;-77
2021/08/30 11:17:27;;;;;;;;;;;;;;;28.28;18.30;99556.53;5023394;28;19970;-79
2021/08/30 11:19:54;;;;;;;;;;;;;;;28.75;18.54;99556.72;5056425;28;19929;-77
2021/08/30 11:22:20;;;;;;;;;;;;;;;29.63;18.01;99554.97;5055955;28;20314;-78
2021/08/30 11:24:46;;;;;;;;;;;;;;;30.12;17.63;99560.97;5056117;28;19928;-78
2021/08/30 11:27:11;;;;;;;;;;;;;;;30.03;17.41;99554.16;5056081;28;19938;-78
2021/08/30 11:29:41;;;;;;;;;;;;;;;30.18;17.11;99560.03;5072770;28;19925;-77
2021/08/30 11:32:07;;;;;;;;;;;;;;;30.13;17.28;99559.91;5056313;28;20359;-79
2021/08/30 11:34:34;;;;;;;;;;;;;;;30.22;17.29;99552.94;5056060;28;20023;-78
2021/08/30 11:37:00;;;;;;;;;;;;;;;29.96;17.11;99559.81;5058119;28;20018;-78
2021/08/30 11:39:27;;;;;;;;;;;;;;;29.33;17.65;99562.53;5076153;28;19936;-77
2021/08/30 11:42:03;;;;;;;;;;;;;;;29.80;17.69;99557.00;5075948;28;19977;-77
2021/08/30 11:44:30;;;;;;;;;;;;;;;29.89;17.60;99561.88;5059399;28;19986;-77
2021/08/30 11:46:56;;;;;;;;;;;;;;;30.27;17.35;99557.69;5042984;28;19927;-78
2021/08/30 11:49:25;;;;;;;;;;;;;;;30.58;16.84;99553.59;5075705;28;19924;-79
2021/08/30 11:51:51;;;;;;;;;;;;;;;30.73;16.56;99555.81;5059071;28;19924;-79
2021/08/30 11:54:19;;;;;;;;;;;;;;;30.17;16.61;99552.00;5075130;28;19923;-79
2021/08/30 11:56:54;;;;;;;;;;;;;;;30.17;16.75;99555.59;5075337;28;19982;-78
2021/08/30 11:59:24;;;;;;;;;;;;;;;30.26;16.69;99547.75;5076247;28;19931;-79
2021/08/30 12:01:50;;;;;;;;;;;;;;;31.16;15.81;99546.88;5042398;28;19923;-77
2021/08/30 12:04:16;;;;;;;;;;;;;;;30.89;15.86;99551.41;5042526;28;20318;-78
2021/08/30 12:06:49;;;;;;;;;;;;;;;31.27;15.57;99549.78;5058774;28;19946;-78
2021/08/30 12:09:15;;;;;;;;;;;;;;;31.97;15.07;99556.59;5059652;28;19924;-78
2021/08/30 12:11:44;;;;;;;;;;;;;;;32.31;14.61;99560.03;5058948;28;19924;-79
2021/08/30 12:14:12;;;;;;;;;;;;;;;32.20;14.98;99552.69;5059307;28;19924;-78
2021/08/30 12:16:37;;;;;;;;;;;;;;;32.16;14.81;99558.78;5094624;28;19962;-77
2021/08/30 12:19:03;;;;;;;;;;;;;;;31.40;15.05;99560.50;5060161;28;19977;-78
2021/08/30 12:21:30;;;;;;;;;;;;;;;31.23;15.20;99559.66;5076704;28;19977;-78
2021/08/30 12:23:55;;;;;;;;;;;;;;;31.47;15.40;99549.28;5075613;28;19967;-77
2021/08/30 12:26:22;;;;;;;;;;;;;;;31.57;15.28;99550.25;5025433;28;19924;-79
2021/08/30 12:28:53;;;;;;;;;;;;;;;31.03;15.66;99560.16;5058843;28;19927;-78
2021/08/30 12:31:23;;;;;;;;;;;;;;;30.11;16.19;99551.03;5042447;28;19928;-78
2021/08/30 12:33:49;;;;;;;;;;;;;;;30.83;15.44;99542.19;5075054;28;19947;-77
2021/08/30 12:36:15;;;;;;;;;;;;;;;31.21;15.44;99551.63;5041787;28;19924;-78
2021/08/30 12:38:40;;;;;;;;;;;;;;;31.60;15.03;99546.16;5041382;28;19928;-77
2021/08/30 12:41:06;;;;;;;;;;;;;;;32.13;14.62;99553.75;5041391;28;20302;-78
2021/08/30 12:43:32;;;;;;;;;;;;;;;31.92;14.87;99551.84;5058364;28;19953;-77
2021/08/30 12:45:58;;;;;;;;;;;;;;;31.91;14.59;99534.41;5058228;28;19931;-77
2021/08/30 12:48:28;;;;;;;;;;;;;;;32.94;14.28;99544.63;5059546;28;20336;-77